Time;durP1;ratioP1;P1;durP2;ratioP2;P2;SDS_P1;SDS_P2;PMS_P1;PMS_P2;Temp;Humidity;BMP_temperature;BMP_pressure;BME280_temperature;BME280_humidity;BME280_pressure;Samples;Min_cycle;Max_cycle;Signal;HPM_P1;HPM_P2
2021/11/24 00:00:57;;;;;;;230.88;213.43;;;5.80;99.90;;;;;;5099537;28;20484;-84
2021/11/24 00:03:23;;;;;;;186.88;170.60;;;5.80;99.90;;;;;;5099210;28;20154;-84
2021/11/24 00:05:55;;;;;;;165.63;150.43;;;5.90;99.90;;;;;;5097585;28;20187;-84
2021/11/24 00:08:23;;;;;;;173.68;158.77;;;5.90;99.90;;;;;;5099219;28;20662;-84
2021/11/24 00:10:54;;;;;;;161.48;146.80;;;5.90;99.90;;;;;;5098904;28;20160;-84
2021/11/24 00:13:22;;;;;;;146.52;131.63;;;6.00;99.90;;;;;;5099280;28;20676;-84
2021/11/24 00:15:57;;;;;;;146.95;132.43;;;5.90;99.90;;;;;;5099334;28;20163;-84
2021/11/24 00:18:42;;;;;;;183.70;168.23;;;5.90;99.90;;;;;;5099371;28;20197;-84
2021/11/24 00:21:19;;;;;;;187.50;171.05;;;5.90;99.90;;;;;;5099106;28;20143;-84
2021/11/24 00:24:03;;;;;;;198.15;181.50;;;5.80;99.90;;;;;;5097660;28;20183;-84
2021/11/24 00:26:28;;;;;;;192.15;174.80;;;5.70;99.90;;;;;;5099533;28;20224;-84
2021/11/24 00:28:57;;;;;;;197.20;180.30;;;5.70;99.90;;;;;;5097178;28;20689;-84
2021/11/24 00:31:23;;;;;;;189.02;172.70;;;5.70;99.90;;;;;;5097467;28;20163;-83
2021/11/24 00:33:54;;;;;;;209.45;192.98;;;5.80;99.90;;;;;;5097181;28;20182;-84
2021/11/24 00:36:23;;;;;;;183.13;167.52;;;5.80;99.90;;;;;;5097639;28;20172;-84
2021/11/24 00:38:49;;;;;;;192.60;176.60;;;5.80;99.90;;;;;;5097769;28;20204;-84
2021/11/24 00:41:25;;;;;;;176.77;161.07;;;5.80;99.90;;;;;;5098525;28;20261;-84
2021/11/24 00:43:51;;;;;;;169.77;154.43;;;5.90;99.90;;;;;;5098799;28;20433;-84
2021/11/24 00:46:22;;;;;;;157.75;142.77;;;5.80;99.90;;;;;;5098771;28;20159;-84
2021/11/24 00:48:54;;;;;;;173.95;158.43;;;5.90;99.90;;;;;;5099118;28;20190;-84
2021/11/24 00:51:25;;;;;;;174.98;159.50;;;5.80;99.90;;;;;;5098410;28;20234;-84
2021/11/24 00:53:51;;;;;;;171.57;156.32;;;5.80;99.90;;;;;;5098160;28;20171;-84
2021/11/24 00:56:26;;;;;;;187.00;171.30;;;5.80;99.90;;;;;;5098686;28;20209;-84
2021/11/24 00:58:55;;;;;;;156.45;142.15;;;5.80;99.90;;;;;;5097276;28;20206;-84
2021/11/24 01:01:23;;;;;;;168.07;152.38;;;5.90;99.90;;;;;;5096661;28;20167;-84
2021/11/24 01:04:29;;;;;;;181.65;165.85;;;5.80;99.90;;;;;;5098016;28;20187;-84
2021/11/24 01:06:57;;;;;;;147.95;133.43;;;5.90;99.90;;;;;;5097805;28;20148;-84
2021/11/24 01:09:26;;;;;;;146.70;131.60;;;5.90;99.90;;;;;;5098483;28;20179;-83
2021/11/24 01:11:55;;;;;;;169.23;153.32;;;5.90;99.90;;;;;;5097298;28;20164;-84
2021/11/24 01:14:22;;;;;;;157.25;141.80;;;5.90;99.90;;;;;;5096961;28;20258;-84
2021/11/24 01:17:08;;;;;;;157.73;141.40;;;5.90;99.90;;;;;;5096825;28;20167;-84
2021/11/24 01:19:36;;;;;;;150.15;134.60;;;5.90;99.90;;;;;;5097641;28;20229;-84
2021/11/24 01:22:14;;;;;;;167.13;151.95;;;5.90;99.90;;;;;;5097672;28;20171;-85
2021/11/24 01:24:43;;;;;;;137.00;122.93;;;5.80;99.90;;;;;;5097237;28;20534;-84
2021/11/24 01:27:11;;;;;;;151.70;137.52;;;5.80;99.90;;;;;;5098206;28;20658;-84
2021/11/24 01:29:46;;;;;;;180.70;165.00;;;5.80;99.90;;;;;;5097578;28;20198;-84
2021/11/24 01:34:53;;;;;;;132.95;119.05;;;5.90;99.90;;;;;;5897734;22;20217;-84
2021/11/24 01:37:19;;;;;;;187.80;170.93;;;5.90;99.90;;;;;;5119823;27;20177;-84
2021/11/24 01:39:45;;;;;;;154.07;138.57;;;5.80;99.90;;;;;;5137142;27;20185;-84
2021/11/24 01:42:11;;;;;;;144.83;130.53;;;5.90;99.90;;;;;;5163905;27;20418;-84
2021/11/24 01:44:39;;;;;;;164.07;148.63;;;5.90;99.90;;;;;;5143453;27;20446;-84
2021/11/24 01:47:10;;;;;;;183.60;167.73;;;5.90;99.90;;;;;;5145469;27;20789;-84
2021/11/24 01:49:35;;;;;;;152.93;137.77;;;5.90;99.90;;;;;;5180956;22;20223;-83
2021/11/24 01:52:02;;;;;;;125.93;112.30;;;5.90;99.90;;;;;;5079315;28;20236;-83
2021/11/24 01:54:29;;;;;;;149.50;131.65;;;6.00;99.90;;;;;;5076537;28;20168;-83
2021/11/24 01:56:55;;;;;;;150.10;135.63;;;5.90;99.90;;;;;;5075641;28;20175;-83
2021/11/24 01:59:21;;;;;;;144.35;130.30;;;5.90;99.90;;;;;;5075682;28;20279;-85
2021/11/24 02:01:49;;;;;;;143.00;128.90;;;5.90;99.90;;;;;;5075454;28;20706;-83
2021/11/24 02:04:15;;;;;;;147.02;132.43;;;5.90;99.90;;;;;;5076677;28;20550;-83
2021/11/24 02:06:42;;;;;;;144.27;130.07;;;5.90;99.90;;;;;;5076560;28;20164;-83
2021/11/24 02:09:08;;;;;;;154.73;139.82;;;5.80;99.90;;;;;;5076329;28;20180;-83
2021/11/24 02:11:41;;;;;;;168.35;152.65;;;5.80;99.90;;;;;;5076660;28;20666;-83
2021/11/24 02:14:08;;;;;;;168.82;153.82;;;5.80;99.90;;;;;;5059240;28;20176;-83
2021/11/24 02:16:49;;;;;;;171.40;155.88;;;5.70;99.90;;;;;;5076347;28;20168;-83
2021/11/24 02:19:15;;;;;;;179.98;163.52;;;5.70;99.90;;;;;;5076558;28;20187;-83
2021/11/24 02:21:45;;;;;;;152.93;137.60;;;5.80;99.90;;;;;;5077039;28;20159;-83
2021/11/24 02:24:12;;;;;;;156.15;141.52;;;5.90;99.90;;;;;;5076479;28;20190;-83
2021/11/24 02:26:37;;;;;;;142.25;127.88;;;5.90;99.90;;;;;;5076827;28;20527;-83
2021/11/24 02:29:03;;;;;;;167.83;152.43;;;5.90;99.90;;;;;;5077214;28;20184;-83
2021/11/24 02:31:29;;;;;;;173.43;157.23;;;5.90;99.90;;;;;;5076322;28;20166;-83
2021/11/24 02:33:56;;;;;;;151.53;136.67;;;5.90;99.90;;;;;;5076343;28;20164;-83
2021/11/24 02:36:23;;;;;;;168.15;151.90;;;5.90;99.90;;;;;;5076009;28;20413;-83
2021/11/24 02:38:52;;;;;;;184.23;168.50;;;5.80;99.90;;;;;;5075844;28;20194;-83
2021/11/24 02:41:18;;;;;;;218.95;201.40;;;5.80;99.90;;;;;;5076703;28;20167;-83
2021/11/24 02:43:44;;;;;;;209.63;193.00;;;5.70;99.90;;;;;;5076306;28;20730;-83
2021/11/24 02:46:10;;;;;;;205.02;189.35;;;5.60;99.90;;;;;;5075453;28;20196;-83
2021/11/24 02:48:36;;;;;;;215.67;198.43;;;5.70;99.90;;;;;;5076351;28;20183;-83
2021/11/24 02:51:04;;;;;;;229.53;212.30;;;5.70;99.90;;;;;;5077074;28;20148;-83
2021/11/24 02:53:33;;;;;;;192.13;176.02;;;5.70;99.90;;;;;;5079133;28;20401;-83
2021/11/24 02:55:59;;;;;;;185.70;169.43;;;5.80;99.90;;;;;;5079223;28;20251;-83
2021/11/24 02:58:29;;;;;;;164.10;148.90;;;5.90;99.90;;;;;;5078657;28;20164;-83
2021/11/24 03:00:57;;;;;;;167.10;151.45;;;5.80;99.90;;;;;;5080526;28;20163;-83
2021/11/24 03:03:22;;;;;;;193.98;177.32;;;5.80;99.90;;;;;;5078646;28;20174;-83
2021/11/24 03:05:51;;;;;;;182.63;167.33;;;5.80;99.90;;;;;;5078262;28;20192;-83
2021/11/24 03:08:17;;;;;;;169.25;153.93;;;5.80;99.90;;;;;;5079537;28;20430;-83
2021/11/24 03:10:45;;;;;;;158.00;142.50;;;5.80;99.90;;;;;;5079059;28;20184;-83
2021/11/24 03:13:11;;;;;;;185.40;168.43;;;5.80;99.90;;;;;;5079692;28;20160;-83
2021/11/24 03:15:37;;;;;;;209.20;191.63;;;5.80;99.90;;;;;;5080251;28;20160;-83
2021/11/24 03:18:03;;;;;;;158.93;143.57;;;5.80;99.90;;;;;;5078774;28;20198;-83
2021/11/24 03:20:29;;;;;;;175.57;159.27;;;5.90;99.90;;;;;;5078611;28;20667;-83
2021/11/24 03:22:56;;;;;;;175.73;160.17;;;5.80;99.90;;;;;;5082553;28;20441;-83
2021/11/24 03:25:23;;;;;;;206.50;189.43;;;5.70;99.90;;;;;;5081509;28;20445;-82
2021/11/24 03:27:49;;;;;;;204.57;186.93;;;5.70;99.90;;;;;;5079720;28;20246;-82
2021/11/24 03:30:20;;;;;;;169.68;154.63;;;5.70;99.90;;;;;;5080301;28;20204;-82
2021/11/24 03:32:47;;;;;;;184.55;168.15;;;5.80;99.90;;;;;;5078936;28;20207;-85
2021/11/24 03:35:14;;;;;;;171.48;156.13;;;5.80;99.90;;;;;;5078375;28;20183;-85
2021/11/24 03:37:40;;;;;;;196.20;178.77;;;5.80;99.90;;;;;;5079785;28;20164;-85
2021/11/24 03:40:11;;;;;;;143.60;128.80;;;5.80;99.90;;;;;;5079890;28;20180;-84
2021/11/24 03:42:36;;;;;;;180.70;163.90;;;5.90;99.90;;;;;;5079793;28;20500;-85
2021/11/24 03:45:04;;;;;;;168.83;153.13;;;5.80;99.90;;;;;;5079949;28;20195;-85
2021/11/24 03:47:29;;;;;;;166.57;151.18;;;5.80;99.90;;;;;;5079765;28;20247;-85
2021/11/24 03:49:55;;;;;;;169.20;153.53;;;5.90;99.90;;;;;;5079020;28;20235;-84
2021/11/24 03:52:21;;;;;;;169.33;154.30;;;5.90;99.90;;;;;;5078268;28;20163;-84
2021/11/24 03:54:47;;;;;;;169.27;154.00;;;5.80;99.90;;;;;;5078451;28;20167;-85
2021/11/24 03:57:12;;;;;;;182.83;165.80;;;5.80;99.90;;;;;;5079156;28;20176;-85
2021/11/24 03:59:38;;;;;;;176.10;159.60;;;5.90;99.90;;;;;;5078816;28;20283;-84
2021/11/24 04:02:04;;;;;;;154.07;139.50;;;5.90;99.90;;;;;;5078983;28;20255;-84
2021/11/24 04:04:30;;;;;;;157.70;141.97;;;5.90;99.90;;;;;;5078670;28;20278;-84
2021/11/24 04:06:55;;;;;;;155.97;139.87;;;5.80;99.90;;;;;;5078894;28;20394;-84
2021/11/24 04:09:21;;;;;;;198.13;181.30;;;5.80;99.90;;;;;;5078879;28;20414;-84
2021/11/24 04:11:47;;;;;;;142.60;127.73;;;5.90;99.90;;;;;;5078515;28;20628;-84
2021/11/24 04:14:13;;;;;;;163.93;149.03;;;5.90;99.90;;;;;;5078246;28;20171;-84
2021/11/24 04:16:39;;;;;;;174.93;159.13;;;5.90;99.90;;;;;;5077422;28;20774;-84
2021/11/24 04:19:05;;;;;;;178.67;163.17;;;5.80;99.90;;;;;;5077710;28;20430;-84
2021/11/24 04:21:31;;;;;;;170.97;155.43;;;5.80;99.90;;;;;;5061230;28;20479;-84
2021/11/24 04:24:01;;;;;;;171.50;154.98;;;5.80;99.90;;;;;;5078668;28;20442;-84
2021/11/24 04:26:27;;;;;;;187.43;170.57;;;5.80;99.90;;;;;;5079455;28;20168;-84
2021/11/24 04:28:53;;;;;;;197.83;181.20;;;5.80;99.90;;;;;;5078527;28;20183;-84
2021/11/24 04:31:19;;;;;;;164.40;148.10;;;5.80;99.90;;;;;;5077928;28;20163;-84
2021/11/24 04:33:44;;;;;;;169.10;153.30;;;5.80;99.90;;;;;;5078495;28;20582;-84
2021/11/24 04:36:10;;;;;;;204.50;186.57;;;5.80;99.90;;;;;;5076593;28;20164;-84
2021/11/24 04:38:36;;;;;;;192.57;175.10;;;5.80;99.90;;;;;;5076904;28;20168;-84
2021/11/24 04:41:05;;;;;;;179.40;163.00;;;5.80;99.90;;;;;;5077374;28;20168;-84
2021/11/24 04:43:39;;;;;;;163.25;147.68;;;5.80;99.90;;;;;;5078203;28;20156;-84
2021/11/24 04:46:04;;;;;;;147.98;132.98;;;5.80;99.90;;;;;;5077153;28;20164;-84
2021/11/24 04:48:30;;;;;;;187.67;170.10;;;5.90;99.90;;;;;;5076626;28;20200;-84
2021/11/24 04:50:56;;;;;;;181.10;165.40;;;5.80;99.90;;;;;;5076533;28;20602;-84
2021/11/24 04:53:22;;;;;;;159.77;144.70;;;5.80;99.90;;;;;;5078653;28;20526;-84
2021/11/24 04:55:48;;;;;;;165.10;149.17;;;5.90;99.90;;;;;;5080595;28;20160;-84
2021/11/24 04:58:14;;;;;;;160.93;145.77;;;5.80;99.90;;;;;;5078644;28;20410;-84
2021/11/24 05:00:40;;;;;;;192.43;175.70;;;5.80;99.90;;;;;;5076388;28;20437;-84
2021/11/24 05:03:11;;;;;;;194.18;177.45;;;5.70;99.90;;;;;;5077827;28;20398;-84
2021/11/24 05:05:37;;;;;;;180.40;164.68;;;5.70;99.90;;;;;;5077844;28;20195;-84
2021/11/24 05:08:03;;;;;;;167.73;152.03;;;5.80;99.90;;;;;;5075997;28;20164;-84
2021/11/24 05:10:29;;;;;;;176.68;161.10;;;5.80;99.90;;;;;;5076357;28;20907;-84
2021/11/24 05:12:55;;;;;;;223.00;205.00;;;5.70;99.90;;;;;;5077458;28;20271;-84
2021/11/24 05:15:25;;;;;;;196.23;179.82;;;5.70;99.90;;;;;;5077480;28;20163;-84
2021/11/24 05:17:56;;;;;;;229.38;211.60;;;5.80;99.90;;;;;;5076640;28;20574;-85
2021/11/24 05:20:24;;;;;;;238.32;219.75;;;5.70;99.90;;;;;;5076852;28;20191;-85
2021/11/24 05:22:50;;;;;;;188.35;172.15;;;5.80;99.90;;;;;;5076012;28;20202;-84
2021/11/24 05:25:16;;;;;;;178.77;163.10;;;5.80;99.90;;;;;;5077345;28;20183;-84
2021/11/24 05:27:42;;;;;;;187.80;171.80;;;5.70;99.90;;;;;;5077298;28;20175;-84
2021/11/24 05:30:10;;;;;;;178.03;161.80;;;5.80;99.90;;;;;;5076988;28;20418;-84
2021/11/24 05:32:36;;;;;;;180.07;164.20;;;5.80;99.90;;;;;;5076847;28;20248;-84
2021/11/24 05:35:03;;;;;;;202.10;185.73;;;5.70;99.90;;;;;;5077140;28;20164;-84
2021/11/24 05:37:29;;;;;;;202.50;186.10;;;5.70;99.90;;;;;;5077237;28;20535;-84
2021/11/24 05:39:55;;;;;;;182.73;166.63;;;5.80;99.90;;;;;;5077034;28;20194;-84
2021/11/24 05:42:20;;;;;;;188.07;171.33;;;5.80;99.90;;;;;;5077024;28;20160;-84
2021/11/24 05:44:49;;;;;;;141.60;126.47;;;5.90;99.90;;;;;;5076916;28;20446;-84
2021/11/24 05:50:02;;;;;;;136.43;122.22;;;6.00;99.90;;;;;;5076149;28;20257;-84
2021/11/24 05:52:28;;;;;;;127.25;113.72;;;5.90;99.90;;;;;;5077124;28;20170;-84
2021/11/24 05:54:53;;;;;;;140.30;125.80;;;5.90;99.90;;;;;;5076508;28;20160;-84
2021/11/24 05:57:22;;;;;;;127.53;114.13;;;5.90;99.90;;;;;;5077138;28;20225;-84
2021/11/24 05:59:48;;;;;;;139.68;125.30;;;5.90;99.90;;;;;;5075695;28;20187;-84
2021/11/24 06:02:13;;;;;;;139.67;125.13;;;5.90;99.90;;;;;;5076566;28;20670;-84
2021/11/24 06:04:39;;;;;;;136.30;122.00;;;5.90;99.90;;;;;;5076722;28;20667;-84
2021/11/24 06:07:05;;;;;;;134.03;120.07;;;5.90;99.90;;;;;;5076464;28;20243;-84
2021/11/24 06:09:30;;;;;;;148.37;133.50;;;5.90;99.90;;;;;;5076174;28;20192;-84
2021/11/24 06:12:05;;;;;;;174.50;158.10;;;5.90;99.90;;;;;;5074815;28;20176;-84
2021/11/24 06:14:31;;;;;;;145.00;129.43;;;5.90;99.90;;;;;;5075538;28;20255;-84
2021/11/24 06:16:57;;;;;;;131.40;117.67;;;5.90;99.90;;;;;;5077501;28;20191;-84
2021/11/24 06:19:29;;;;;;;145.80;131.02;;;5.90;99.90;;;;;;5075201;28;20679;-84
2021/11/24 06:21:55;;;;;;;156.70;141.07;;;5.90;99.90;;;;;;5076915;28;20175;-84
2021/11/24 06:24:21;;;;;;;154.40;138.67;;;5.80;99.90;;;;;;5076402;28;20278;-84
2021/11/24 06:26:47;;;;;;;197.40;180.70;;;5.80;99.90;;;;;;5077906;28;20156;-84
2021/11/24 06:29:18;;;;;;;161.00;145.88;;;5.90;99.90;;;;;;5077039;28;20210;-84
2021/11/24 06:31:44;;;;;;;158.95;144.02;;;5.90;99.90;;;;;;5076975;28;20144;-84
2021/11/24 06:34:10;;;;;;;157.80;142.82;;;5.90;99.90;;;;;;5076662;28;20170;-84
2021/11/24 06:36:39;;;;;;;141.37;126.80;;;5.90;99.90;;;;;;5075481;28;20176;-84
2021/11/24 06:39:07;;;;;;;159.05;143.35;;;5.90;99.90;;;;;;5076721;28;20778;-84
2021/11/24 06:41:33;;;;;;;152.18;137.20;;;5.90;99.90;;;;;;5075961;28;20171;-84
2021/11/24 06:44:05;;;;;;;156.70;141.23;;;5.90;99.90;;;;;;5075207;28;20281;-84
2021/11/24 06:46:35;;;;;;;162.43;146.75;;;6.00;99.90;;;;;;5075273;28;20651;-84
2021/11/24 06:49:04;;;;;;;160.73;145.80;;;6.00;99.90;;;;;;5075318;28;20219;-84
2021/11/24 06:51:29;;;;;;;167.05;151.18;;;5.90;99.90;;;;;;5076279;28;20588;-84
2021/11/24 06:53:55;;;;;;;149.77;134.63;;;5.90;99.90;;;;;;5076264;28;20192;-84
2021/11/24 06:56:22;;;;;;;155.60;140.33;;;5.90;99.90;;;;;;5076456;28;20206;-84
2021/11/24 06:58:51;;;;;;;159.63;144.57;;;6.00;99.90;;;;;;5076522;28;20426;-84
2021/11/24 07:01:20;;;;;;;138.82;124.72;;;6.00;99.90;;;;;;5076906;28;20160;-84
2021/11/24 07:03:52;;;;;;;178.18;161.93;;;6.00;99.90;;;;;;5076239;28;20148;-84
2021/11/24 07:06:18;;;;;;;148.85;134.02;;;6.00;99.90;;;;;;5077216;28;20210;-84
2021/11/24 07:08:44;;;;;;;130.10;116.13;;;6.00;99.90;;;;;;5059863;28;20566;-84
2021/11/24 07:11:10;;;;;;;142.93;128.57;;;6.00;99.90;;;;;;5060114;28;20489;-84
2021/11/24 07:13:38;;;;;;;147.50;131.97;;;6.00;99.90;;;;;;5059257;28;20178;-83
2021/11/24 07:16:07;;;;;;;124.70;109.30;;;6.00;99.90;;;;;;5077200;28;20160;-84
2021/11/24 07:18:33;;;;;;;147.15;132.02;;;6.00;99.90;;;;;;5077178;28;20180;-84
2021/11/24 07:21:25;;;;;;;180.67;164.90;;;5.90;99.90;;;;;;5076555;28;20255;-82
2021/11/24 07:23:51;;;;;;;141.80;127.55;;;5.90;99.90;;;;;;5065545;28;20179;-84
2021/11/24 07:26:23;;;;;;;165.95;149.70;;;6.00;99.90;;;;;;5057024;28;20160;-82
2021/11/24 07:28:49;;;;;;;134.18;116.55;;;6.00;99.90;;;;;;5058201;28;20245;-84
2021/11/24 07:31:20;;;;;;;123.47;109.77;;;6.10;99.90;;;;;;5059978;28;20500;-84
2021/11/24 07:33:52;;;;;;;128.18;114.45;;;6.10;99.90;;;;;;5059134;28;20211;-84
2021/11/24 07:36:20;;;;;;;133.00;117.57;;;6.10;99.90;;;;;;5077672;28;20152;-84
2021/11/24 07:38:46;;;;;;;171.75;155.85;;;6.00;99.90;;;;;;5078498;28;20179;-84
2021/11/24 07:41:17;;;;;;;194.40;177.67;;;6.00;99.90;;;;;;5062097;28;20554;-84
2021/11/24 07:43:43;;;;;;;171.57;156.27;;;5.90;99.90;;;;;;5080349;28;20202;-85
2021/11/24 07:46:16;;;;;;;218.50;201.10;;;5.90;99.90;;;;;;5080873;28;20156;-84
2021/11/24 07:48:43;;;;;;;211.60;194.65;;;5.90;99.90;;;;;;5080917;22;20433;-87
2021/11/24 07:51:11;;;;;;;216.75;199.60;;;5.90;99.90;;;;;;5146575;27;20195;-85
2021/11/24 07:53:36;;;;;;;190.30;173.80;;;6.00;99.90;;;;;;5144400;27;20173;-85
2021/11/24 07:56:02;;;;;;;175.50;159.67;;;6.10;99.90;;;;;;5143950;27;20165;-85
2021/11/24 07:58:28;;;;;;;168.57;153.67;;;6.10;99.90;;;;;;5144794;27;20162;-85
2021/11/24 08:00:55;;;;;;;185.10;168.47;;;6.10;99.90;;;;;;5145520;27;20166;-85
2021/11/24 08:03:21;;;;;;;191.07;174.52;;;6.10;99.90;;;;;;5145226;27;20162;-85
2021/11/24 08:05:47;;;;;;;149.90;135.43;;;6.10;99.90;;;;;;5147510;27;20248;-85
2021/11/24 08:08:12;;;;;;;161.17;146.00;;;6.20;99.90;;;;;;5147924;27;20404;-85
2021/11/24 08:10:38;;;;;;;154.47;139.07;;;6.10;99.90;;;;;;5147290;27;20237;-85
2021/11/24 08:13:04;;;;;;;200.10;183.23;;;6.10;99.90;;;;;;5141850;27;20248;-85
2021/11/24 08:15:29;;;;;;;198.37;182.20;;;6.10;99.90;;;;;;5167940;27;20165;-85
2021/11/24 08:17:55;;;;;;;174.53;159.13;;;6.00;99.90;;;;;;5168165;27;20157;-85
2021/11/24 08:20:26;;;;;;;159.03;144.70;;;6.10;99.90;;;;;;5167315;27;20263;-85
2021/11/24 08:22:52;;;;;;;155.73;141.20;;;6.20;99.90;;;;;;5164616;27;20508;-85
2021/11/24 08:25:17;;;;;;;179.70;163.67;;;6.20;99.90;;;;;;5147205;27;20193;-85
2021/11/24 08:27:43;;;;;;;171.17;155.63;;;6.20;99.90;;;;;;5165157;27;20222;-85
2021/11/24 08:30:09;;;;;;;188.63;171.90;;;6.20;99.90;;;;;;5164512;27;20189;-85
2021/11/24 08:32:36;;;;;;;176.93;160.50;;;6.20;99.90;;;;;;5166515;27;20161;-85
2021/11/24 08:35:04;;;;;;;195.60;179.05;;;6.20;99.90;;;;;;5166164;27;20655;-86
2021/11/24 08:37:43;;;;;;;;;;;;;;;;;;;;;
2021/11/24 08:40:10;;;;;;;164.98;149.23;;;6.20;99.90;;;;;;5144660;22;20305;-86
2021/11/24 08:42:36;;;;;;;144.88;130.13;;;6.30;99.90;;;;;;5104305;28;20159;-85
2021/11/24 08:45:01;;;;;;;165.40;149.85;;;6.30;99.90;;;;;;5104263;28;20195;-86
2021/11/24 08:47:27;;;;;;;161.20;146.03;;;6.30;99.90;;;;;;5103897;28;20638;-86
2021/11/24 08:49:53;;;;;;;152.33;137.27;;;6.30;99.90;;;;;;5101795;28;20432;-86
2021/11/24 08:52:19;;;;;;;136.23;122.47;;;6.40;99.90;;;;;;5102817;28;20407;-85
2021/11/24 08:54:45;;;;;;;126.27;112.60;;;6.50;99.90;;;;;;5104781;28;20386;-86
2021/11/24 08:57:10;;;;;;;133.10;114.50;;;6.50;99.90;;;;;;5105582;28;20591;-86
2021/11/24 08:59:36;;;;;;;134.17;119.23;;;6.50;99.90;;;;;;5103356;28;20179;-86
2021/11/24 09:02:02;;;;;;;131.63;103.80;;;6.50;99.90;;;;;;5104254;28;20257;-85
2021/11/24 09:04:28;;;;;;;119.27;88.50;;;6.50;99.90;;;;;;5104876;28;20283;-86
2021/11/24 09:06:53;;;;;;;123.33;109.10;;;6.50;99.90;;;;;;5103382;28;20993;-85
2021/11/24 09:09:19;;;;;;;114.03;92.67;;;6.50;99.90;;;;;;5102653;28;20262;-85
2021/11/24 09:11:45;;;;;;;111.97;80.43;;;6.60;99.90;;;;;;5102860;28;20228;-85
2021/11/24 09:14:10;;;;;;;119.43;100.57;;;6.60;99.90;;;;;;5103415;28;20189;-85
2021/11/24 09:16:36;;;;;;;116.77;80.70;;;6.60;99.90;;;;;;5102671;28;20568;-85
2021/11/24 09:19:02;;;;;;;111.87;79.17;;;6.60;99.90;;;;;;5103550;28;20188;-85
2021/11/24 09:21:31;;;;;;;117.73;83.33;;;6.50;99.90;;;;;;5100885;28;20175;-85
2021/11/24 09:24:01;;;;;;;113.95;84.13;;;6.50;99.90;;;;;;5103193;28;20410;-85
2021/11/24 09:26:37;;;;;;;116.45;75.32;;;6.60;99.90;;;;;;5102200;28;20151;-85
2021/11/24 09:29:03;;;;;;;116.30;86.78;;;6.60;99.90;;;;;;5103814;28;20193;-86
2021/11/24 09:31:29;;;;;;;113.30;69.60;;;6.60;99.90;;;;;;5104898;28;20179;-86
2021/11/24 09:33:55;;;;;;;118.83;74.37;;;6.60;99.90;;;;;;5103940;28;20597;-86
2021/11/24 09:36:20;;;;;;;116.40;84.87;;;6.60;99.90;;;;;;5104677;28;20213;-85
2021/11/24 09:38:46;;;;;;;111.13;72.13;;;6.60;99.90;;;;;;5103544;28;20537;-85
2021/11/24 09:41:16;;;;;;;114.57;72.93;;;6.80;99.90;;;;;;5104577;28;20158;-86
2021/11/24 09:43:48;;;;;;;108.93;59.88;;;6.80;99.90;;;;;;5104228;28;20155;-85
2021/11/24 09:46:16;;;;;;;117.45;77.35;;;6.80;99.90;;;;;;5104432;28;20186;-86
2021/11/24 09:48:44;;;;;;;109.97;67.53;;;6.80;99.90;;;;;;5103418;28;20183;-86
2021/11/24 09:51:11;;;;;;;119.20;73.47;;;6.80;99.90;;;;;;5102079;28;20168;-86
2021/11/24 09:53:40;;;;;;;107.80;64.35;;;6.80;99.90;;;;;;5102810;28;20292;-85
2021/11/24 09:56:07;;;;;;;110.32;72.43;;;6.90;99.90;;;;;;5099120;28;20523;-86
2021/11/24 09:58:33;;;;;;;111.93;72.90;;;6.90;99.90;;;;;;5102335;28;20166;-85
2021/11/24 10:00:59;;;;;;;118.00;77.72;;;6.90;99.90;;;;;;5101161;28;20201;-86
2021/11/24 10:03:26;;;;;;;118.55;75.50;;;7.10;99.90;;;;;;5104453;28;20538;-85
2021/11/24 10:05:53;;;;;;;115.03;77.07;;;7.10;99.90;;;;;;5102629;28;20739;-85
2021/11/24 10:08:19;;;;;;;114.57;83.15;;;7.20;99.90;;;;;;5104268;28;20187;-86
2021/11/24 10:10:45;;;;;;;113.67;84.17;;;7.30;99.90;;;;;;5103588;28;20159;-86
2021/11/24 10:13:11;;;;;;;110.60;73.30;;;7.20;99.90;;;;;;5104837;28;20476;-85
2021/11/24 10:15:41;;;;;;;117.35;95.60;;;7.10;99.90;;;;;;5105259;28;20469;-86
2021/11/24 10:18:28;;;;;;;128.70;105.95;;;7.20;99.90;;;;;;5102870;28;20232;-86
2021/11/24 10:21:06;;;;;;;121.28;93.38;;;7.20;99.90;;;;;;5104247;28;20165;-86
2021/11/24 10:23:34;;;;;;;119.05;92.82;;;7.20;99.90;;;;;;5102671;28;20158;-86
2021/11/24 10:26:19;;;;;;;118.15;91.50;;;7.30;99.90;;;;;;5104490;28;20191;-86
2021/11/24 10:28:56;;;;;;;117.80;92.82;;;7.40;99.90;;;;;;5102466;28;20206;-86
2021/11/24 10:31:43;;;;;;;116.97;90.07;;;7.50;99.90;;;;;;5102721;28;20174;-86
2021/11/24 10:34:38;;;;;;;123.88;104.32;;;7.50;99.90;;;;;;5104229;28;20147;-86
2021/11/24 10:37:16;;;;;;;117.00;100.10;;;7.60;99.90;;;;;;5102689;28;20635;-85
2021/11/24 10:39:48;;;;;;;120.18;103.32;;;7.40;99.90;;;;;;5101135;28;20210;-85
2021/11/24 10:42:23;;;;;;;113.45;91.88;;;7.40;99.90;;;;;;5103966;28;20217;-85
2021/11/24 10:44:54;;;;;;;119.47;101.80;;;7.50;99.90;;;;;;5104467;28;20175;-85
2021/11/24 10:47:22;;;;;;;109.15;82.38;;;7.50;99.90;;;;;;5104097;28;20181;-85
2021/11/24 10:49:53;;;;;;;112.53;81.28;;;7.70;99.90;;;;;;5104087;28;20266;-85
2021/11/24 10:52:30;;;;;;;106.82;61.50;;;7.70;99.90;;;;;;5103557;28;20159;-85
2021/11/24 10:55:22;;;;;;;98.28;44.03;;;7.80;99.90;;;;;;5101822;28;20260;-86
2021/11/24 10:58:24;;;;;;;96.15;39.00;;;7.90;99.90;;;;;;5101640;28;20159;-86
2021/11/24 11:00:58;;;;;;;92.85;30.58;;;8.00;99.90;;;;;;5103271;28;20140;-85
2021/11/24 11:03:42;;;;;;;95.95;31.08;;;8.10;99.90;;;;;;5103630;28;20171;-86
2021/11/24 11:06:08;;;;;;;98.15;39.85;;;8.00;99.90;;;;;;5102313;28;20156;-85
2021/11/24 11:08:34;;;;;;;98.40;49.15;;;8.00;99.90;;;;;;5102860;28;20171;-85
2021/11/24 11:11:05;;;;;;;96.10;49.33;;;8.00;99.90;;;;;;5100948;28;20143;-85
2021/11/24 11:13:32;;;;;;;97.38;59.97;;;8.10;99.90;;;;;;5103355;28;20525;-85
2021/11/24 11:15:58;;;;;;;93.78;48.30;;;8.10;99.90;;;;;;5105813;28;20167;-85
2021/11/24 11:18:25;;;;;;;86.60;28.35;;;8.10;99.90;;;;;;5105979;28;20166;-85
2021/11/24 11:21:07;;;;;;;86.35;27.80;;;8.10;99.90;;;;;;5105367;28;20587;-85
2021/11/24 11:23:36;;;;;;;82.70;20.35;;;8.10;99.90;;;;;;5105340;28;20221;-85
2021/11/24 11:26:03;;;;;;;86.85;20.48;;;8.20;99.90;;;;;;5103808;28;20241;-85
2021/11/24 11:28:34;;;;;;;89.63;18.00;;;8.30;99.90;;;;;;5102548;28;20159;-85
2021/11/24 11:31:02;;;;;;;87.50;17.35;;;8.50;99.90;;;;;;5106596;28;20623;-85
2021/11/24 11:33:32;;;;;;;83.55;16.75;;;8.50;99.90;;;;;;5105745;28;20183;-85
2021/11/24 11:36:01;;;;;;;88.20;22.63;;;8.50;99.90;;;;;;5105180;28;20205;-86
2021/11/24 11:38:27;;;;;;;87.07;28.00;;;8.60;99.90;;;;;;5106505;28;20168;-85
2021/11/24 11:40:53;;;;;;;82.37;22.03;;;8.70;99.90;;;;;;5106415;28;20250;-86
2021/11/24 11:43:24;;;;;;;89.50;31.92;;;8.70;99.90;;;;;;5105832;28;20454;-85
2021/11/24 11:45:51;;;;;;;90.05;38.42;;;8.80;99.90;;;;;;5105829;28;20191;-86
2021/11/24 11:48:29;;;;;;;85.63;35.35;;;8.70;99.90;;;;;;5104252;28;20163;-85
2021/11/24 11:51:05;;;;;;;85.53;32.42;;;8.50;99.90;;;;;;5105011;28;20185;-85
2021/11/24 11:53:31;;;;;;;84.65;24.73;;;8.40;99.90;;;;;;5104392;28;20163;-85
2021/11/24 11:56:07;;;;;;;80.47;18.07;;;8.40;99.90;;;;;;5106210;28;20143;-86
2021/11/24 11:58:34;;;;;;;82.55;18.10;;;8.40;99.90;;;;;;5103810;28;20166;-85
2021/11/24 12:01:04;;;;;;;79.20;18.48;;;8.30;99.90;;;;;;5105139;28;20218;-85
2021/11/24 12:04:00;;;;;;;80.38;19.42;;;8.30;99.90;;;;;;5105538;28;20178;-85
2021/11/24 12:06:32;;;;;;;76.88;17.05;;;8.30;99.90;;;;;;5103944;28;20182;-85
2021/11/24 12:09:34;;;;;;;75.00;18.75;;;8.30;99.90;;;;;;5106625;28;20246;-85
2021/11/24 12:12:00;;;;;;;73.65;22.83;;;8.20;99.90;;;;;;5088345;28;20273;-86
2021/11/24 12:14:47;;;;;;;76.20;31.55;;;8.10;99.90;;;;;;5108603;28;20159;-86
2021/11/24 12:20:00;;;;;;;77.43;23.58;;;8.00;99.30;;;;;;5108214;28;20254;-86
2021/11/24 12:22:57;;;;;;;72.22;18.95;;;8.00;97.50;;;;;;5107432;28;20523;-85
2021/11/24 12:25:30;;;;;;;73.35;19.02;;;7.90;96.00;;;;;;5105924;28;20179;-85
2021/11/24 12:28:01;;;;;;;73.68;24.58;;;8.00;99.90;;;;;;5108896;28;20166;-85
2021/11/24 12:30:35;;;;;;;72.47;21.70;;;8.00;98.20;;;;;;5106587;28;20178;-85
2021/11/24 12:33:07;;;;;;;72.03;18.55;;;8.00;96.90;;;;;;5105089;28;20189;-85
2021/11/24 12:35:36;;;;;;;73.20;17.70;;;8.00;95.00;;;;;;5109862;28;20166;-86
2021/11/24 12:38:03;;;;;;;75.93;16.13;;;8.00;94.40;;;;;;5107708;28;20164;-85
2021/11/24 12:40:32;;;;;;;73.28;21.65;;;8.00;95.70;;;;;;5108177;28;20201;-85